createdAt,value
2022-08-17T00:01:51.863Z,52.90
2022-08-17T00:04:24.324Z,54.30
2022-08-17T00:06:56.649Z,53.90
2022-08-17T00:09:27.405Z,54.10
2022-08-17T00:12:41.878Z,54.90
2022-08-17T00:14:51.193Z,55.60
2022-08-17T00:17:22.001Z,54.70
2022-08-17T00:19:52.721Z,54.60
2022-08-17T00:22:31.610Z,55.10
2022-08-17T00:25:08.713Z,54.30
2022-08-17T00:27:39.789Z,55.70
2022-08-17T00:30:12.862Z,54.80
2022-08-17T00:33:12.321Z,54.40
2022-08-17T00:35:38.487Z,54.30
2022-08-17T00:38:12.974Z,54.00
2022-08-17T00:40:46.325Z,54.90
2022-08-17T00:43:21.549Z,54.60
2022-08-17T00:45:52.611Z,54.60
2022-08-17T00:48:30.032Z,55.00
2022-08-17T00:51:09.765Z,55.00
2022-08-17T00:53:45.682Z,55.80
2022-08-17T00:56:20.319Z,56.10
2022-08-17T00:58:54.355Z,56.00
2022-08-17T01:01:25.690Z,55.90
2022-08-17T01:03:59.636Z,56.60
2022-08-17T01:06:32.201Z,55.90
2022-08-17T01:09:05.852Z,56.60
2022-08-17T01:11:40.997Z,56.20
2022-08-17T01:14:12.057Z,56.00
2022-08-17T01:16:43.177Z,56.50
2022-08-17T01:19:20.995Z,55.40
2022-08-17T01:21:59.860Z,55.90
2022-08-17T01:24:33.799Z,56.50
2022-08-17T01:27:10.520Z,55.60
2022-08-17T01:29:43.641Z,55.70
2022-08-17T01:32:14.650Z,55.40
2022-08-17T01:34:50.523Z,55.80
2022-08-17T01:37:23.239Z,55.90
2022-08-17T01:40:00.213Z,56.10
2022-08-17T01:42:36.269Z,56.70
2022-08-17T01:45:11.749Z,56.10
2022-08-17T01:47:42.537Z,56.40
2022-08-17T01:50:17.684Z,57.30
2022-08-17T01:52:50.090Z,56.40
2022-08-17T01:55:27.590Z,56.30
2022-08-17T01:57:58.526Z,56.70
2022-08-17T02:00:46.818Z,56.90
2022-08-17T02:03:22.189Z,56.90
2022-08-17T02:05:54.171Z,56.80
2022-08-17T02:08:36.900Z,56.50
2022-08-17T02:11:15.385Z,57.10
2022-08-17T02:13:46.185Z,57.70
2022-08-17T02:16:17.873Z,58.00
2022-08-17T02:18:48.828Z,57.30
2022-08-17T02:21:19.747Z,57.90
2022-08-17T02:23:51.565Z,57.00
2022-08-17T02:26:26.633Z,57.40
2022-08-17T02:28:57.607Z,58.10
2022-08-17T02:31:28.362Z,58.10
2022-08-17T02:34:04.740Z,57.90
2022-08-17T02:36:37.233Z,57.90
2022-08-17T02:39:09.981Z,58.60
2022-08-17T02:41:42.835Z,58.80
2022-08-17T02:44:13.586Z,59.10
2022-08-17T02:47:04.377Z,59.90
2022-08-17T02:49:36.123Z,61.10
2022-08-17T02:52:09.256Z,62.00
2022-08-17T02:54:42.404Z,63.20
2022-08-17T02:57:16.117Z,64.00
2022-08-17T02:59:49.031Z,65.70
2022-08-17T03:02:20.027Z,65.50
2022-08-17T03:04:50.845Z,66.20
2022-08-17T03:07:21.573Z,66.70
2022-08-17T03:09:54.759Z,67.00
2022-08-17T03:12:27.375Z,67.70
2022-08-17T03:14:58.108Z,68.70
2022-08-17T03:17:28.944Z,69.20
2022-08-17T03:19:59.821Z,69.60
2022-08-17T03:22:36.276Z,70.30
2022-08-17T03:25:10.766Z,70.90
2022-08-17T03:27:43.434Z,71.80
2022-08-17T03:30:19.178Z,72.10
2022-08-17T03:32:53.413Z,72.40
2022-08-17T03:35:26.402Z,73.20
2022-08-17T03:38:00.821Z,72.90
2022-08-17T03:40:41.077Z,73.20
2022-08-17T03:43:26.142Z,73.30
2022-08-17T03:46:28.581Z,73.70
2022-08-17T03:49:20.784Z,74.30
2022-08-17T03:52:08.133Z,74.40
2022-08-17T03:54:55.996Z,75.20
2022-08-17T03:57:26.910Z,76.40
2022-08-17T03:59:59.605Z,77.20
2022-08-17T04:02:32.954Z,77.80
2022-08-17T04:05:04.062Z,79.50
2022-08-17T04:07:35.239Z,79.10
2022-08-17T04:10:06.377Z,79.10
2022-08-17T04:12:49.372Z,80.00
2022-08-17T04:15:22.075Z,80.80
2022-08-17T04:17:52.806Z,81.60
2022-08-17T04:20:25.774Z,82.00
2022-08-17T04:23:02.909Z,82.70
2022-08-17T04:25:37.213Z,82.90
2022-08-17T04:28:09.416Z,83.00
2022-08-17T04:30:49.908Z,84.00
2022-08-17T04:33:24.838Z,84.50
2022-08-17T04:36:01.091Z,84.50
2022-08-17T04:38:35.258Z,85.30
2022-08-17T04:41:24.042Z,85.60
2022-08-17T04:43:59.241Z,86.30
2022-08-17T04:46:40.581Z,86.10
2022-08-17T04:49:13.314Z,86.60
2022-08-17T04:51:54.471Z,86.60
2022-08-17T04:54:27.188Z,86.40
2022-08-17T04:56:58.119Z,86.70
2022-08-17T04:59:29.128Z,86.20
2022-08-17T05:02:01.947Z,85.70
2022-08-17T05:04:35.201Z,85.30
2022-08-17T05:07:06.409Z,86.00
2022-08-17T05:09:37.135Z,85.20
2022-08-17T05:12:09.220Z,85.60
2022-08-17T05:14:42.190Z,85.80
2022-08-17T05:17:14.533Z,86.20
2022-08-17T05:19:47.649Z,86.50
2022-08-17T05:22:22.169Z,86.90
2022-08-17T05:24:53.926Z,87.10
2022-08-17T05:27:29.278Z,87.50
2022-08-17T05:30:06.620Z,87.60
2022-08-17T05:32:40.413Z,87.60
2022-08-17T05:35:11.925Z,88.00
2022-08-17T05:37:42.688Z,88.20
2022-08-17T05:40:14.299Z,88.00
2022-08-17T05:42:45.214Z,88.50
2022-08-17T05:45:16.532Z,88.60
2022-08-17T05:48:04.508Z,88.40
2022-08-17T05:50:52.113Z,88.30
2022-08-17T05:53:29.216Z,88.60
2022-08-17T05:56:30.200Z,88.50
2022-08-17T05:59:11.097Z,88.70
2022-08-17T06:01:51.045Z,88.80
2022-08-17T06:04:34.340Z,89.00
2022-08-17T06:07:11.300Z,89.10
2022-08-17T06:09:48.888Z,89.50
2022-08-17T06:12:36.747Z,89.70
2022-08-17T06:15:25.408Z,89.80
2022-08-17T06:18:01.643Z,90.20
2022-08-17T06:20:45.627Z,90.30
2022-08-17T06:23:20.107Z,90.30
2022-08-17T06:25:56.188Z,90.40
2022-08-17T06:28:32.972Z,90.40
2022-08-17T06:31:09.626Z,90.60
2022-08-17T06:33:42.466Z,90.80
2022-08-17T06:36:29.537Z,90.80
2022-08-17T06:39:10.301Z,91.00
2022-08-17T06:41:50.755Z,91.10
2022-08-17T06:44:49.819Z,91.30
2022-08-17T06:47:28.001Z,91.40
2022-08-17T06:50:09.787Z,91.80
2022-08-17T06:52:51.318Z,91.90
2022-08-17T06:55:28.572Z,92.10
2022-08-17T06:58:05.860Z,92.40
2022-08-17T07:00:51.541Z,92.40
2022-08-17T07:03:42.347Z,92.70
2022-08-17T07:06:17.673Z,92.70
2022-08-17T07:09:00.399Z,92.80
2022-08-17T07:11:34.970Z,93.10
2022-08-17T07:14:23.228Z,93.30
2022-08-17T07:16:56.175Z,93.40
2022-08-17T07:19:29.725Z,93.60
2022-08-17T07:22:08.552Z,93.70
2022-08-17T07:24:48.131Z,93.80
2022-08-17T07:27:21.815Z,94.10
2022-08-17T07:29:57.393Z,94.30
2022-08-17T07:32:32.352Z,94.40
2022-08-17T07:35:15.331Z,94.60
2022-08-17T07:37:51.724Z,94.60
2022-08-17T07:40:31.824Z,94.60
2022-08-17T07:43:15.649Z,94.80
2022-08-17T07:46:30.978Z,95.00
2022-08-17T07:49:21.379Z,95.20
2022-08-17T07:52:24.221Z,95.50
2022-08-17T07:54:52.120Z,95.70
2022-08-17T07:57:38.905Z,95.90
2022-08-17T08:00:23.930Z,96.00
2022-08-17T08:03:17.402Z,96.20
2022-08-17T08:05:55.929Z,96.40
2022-08-17T08:08:30.755Z,96.80
2022-08-17T08:11:04.870Z,96.90
2022-08-17T08:13:41.264Z,97.10
2022-08-17T08:16:30.435Z,97.30
2022-08-17T08:19:04.984Z,97.40
2022-08-17T08:21:43.108Z,97.70
2022-08-17T08:24:31.432Z,97.90
2022-08-17T08:27:11.202Z,98.20
2022-08-17T08:29:54.729Z,98.40
2022-08-17T08:32:39.284Z,98.60
2022-08-17T08:35:16.292Z,98.80
2022-08-17T08:37:54.809Z,99.00
2022-08-17T08:40:39.530Z,99.10
2022-08-17T08:43:29.047Z,99.30
2022-08-17T08:46:10.616Z,99.80
2022-08-17T08:49:06.466Z,99.60
2022-08-17T08:51:53.356Z,99.80
2022-08-17T08:54:35.632Z,99.90
2022-08-17T08:57:29.139Z,99.90
2022-08-17T09:00:13.607Z,99.90
2022-08-17T09:03:09.215Z,99.90
2022-08-17T09:06:03.644Z,99.90
2022-08-17T09:08:47.042Z,99.90
2022-08-17T09:11:25.106Z,99.90
2022-08-17T09:14:06.233Z,99.90
2022-08-17T09:17:00.348Z,99.90
2022-08-17T09:19:40.735Z,99.90
2022-08-17T09:22:25.021Z,99.90
2022-08-17T09:25:01.728Z,99.90
2022-08-17T09:27:36.929Z,99.90
2022-08-17T09:30:12.720Z,99.90
2022-08-17T09:32:45.445Z,99.90
2022-08-17T09:35:21.339Z,99.90
2022-08-17T09:38:03.907Z,99.90
2022-08-17T09:40:42.099Z,99.90
2022-08-17T09:43:21.977Z,99.90
2022-08-17T09:45:56.660Z,99.90
2022-08-17T09:48:32.901Z,99.90
2022-08-17T09:51:10.491Z,99.90
2022-08-17T09:53:44.576Z,99.90
2022-08-17T09:56:43.772Z,99.90
2022-08-17T09:59:39.667Z,99.90
2022-08-17T10:02:32.776Z,99.90
2022-08-17T10:05:10.532Z,99.90
2022-08-17T10:07:48.312Z,99.90
2022-08-17T10:10:25.747Z,99.90
2022-08-17T10:13:02.444Z,99.90
2022-08-17T10:15:45.662Z,99.90
2022-08-17T10:18:31.921Z,99.90
2022-08-17T10:21:24.917Z,99.90
2022-08-17T10:24:21.813Z,99.90
2022-08-17T10:26:56.730Z,99.90
2022-08-17T10:29:44.145Z,99.90
2022-08-17T10:32:33.364Z,99.90
2022-08-17T10:35:30.820Z,99.90
2022-08-17T10:38:34.782Z,99.90
2022-08-17T10:41:19.683Z,99.90
2022-08-17T10:44:39.397Z,99.90
2022-08-17T10:47:04.372Z,99.90
2022-08-17T10:49:37.489Z,99.90
2022-08-17T10:52:43.059Z,99.90
2022-08-17T10:55:17.433Z,99.90
2022-08-17T10:57:51.955Z,99.90
2022-08-17T11:00:55.502Z,99.90
2022-08-17T11:03:28.455Z,99.90
2022-08-17T11:06:13.459Z,99.90
2022-08-17T11:09:27.073Z,99.90
2022-08-17T11:12:12.804Z,99.90
2022-08-17T11:15:02.914Z,99.90
2022-08-17T11:17:51.104Z,99.90
2022-08-17T11:20:42.119Z,99.90
2022-08-17T11:23:45.620Z,99.90
2022-08-17T11:26:28.537Z,99.90
2022-08-17T11:29:02.924Z,99.90
2022-08-17T11:31:40.047Z,99.90
2022-08-17T11:34:19.905Z,99.90
2022-08-17T11:37:23.375Z,99.90
2022-08-17T11:40:37.849Z,99.90
2022-08-17T11:43:45.311Z,99.90
2022-08-17T11:46:24.512Z,99.90
2022-08-17T11:49:22.716Z,99.90
2022-08-17T11:52:17.760Z,99.90
2022-08-17T11:54:50.272Z,99.90
2022-08-17T11:57:59.571Z,99.90
2022-08-17T12:01:01.078Z,99.90
2022-08-17T12:03:55.900Z,99.90
2022-08-17T12:06:57.748Z,99.90
2022-08-17T12:09:32.455Z,99.90
2022-08-17T12:12:12.946Z,99.90
2022-08-17T12:15:10.449Z,99.90
2022-08-17T12:17:49.167Z,99.90
2022-08-17T12:20:31.344Z,99.90
2022-08-17T12:23:11.924Z,99.90
2022-08-17T12:25:50.116Z,99.90
2022-08-17T12:28:27.309Z,99.90
2022-08-17T12:31:02.227Z,99.90
2022-08-17T12:33:34.237Z,99.90
2022-08-17T12:36:08.315Z,99.90
2022-08-17T12:38:42.588Z,99.90
2022-08-17T12:41:29.783Z,99.90
2022-08-17T12:44:03.331Z,99.90
2022-08-17T12:46:36.944Z,99.90
2022-08-17T12:49:19.422Z,99.90
2022-08-17T12:51:50.602Z,99.90
2022-08-17T12:54:32.228Z,99.90
2022-08-17T12:57:08.729Z,99.90
2022-08-17T12:59:45.203Z,99.90
2022-08-17T13:02:30.416Z,99.90
2022-08-17T13:05:03.503Z,99.90
2022-08-17T13:07:38.180Z,99.90
2022-08-17T13:10:16.404Z,99.90
2022-08-17T13:12:47.162Z,99.90
2022-08-17T13:15:25.071Z,99.90
2022-08-17T13:18:06.318Z,99.90
2022-08-17T13:20:39.629Z,99.90
2022-08-17T13:23:12.900Z,99.90
2022-08-17T13:25:47.438Z,99.90
2022-08-17T13:28:29.768Z,99.90
2022-08-17T13:31:33.793Z,99.90
2022-08-17T13:34:19.112Z,99.90
2022-08-17T13:36:50.658Z,99.90
2022-08-17T13:39:24.567Z,99.90
2022-08-17T13:41:58.709Z,99.90
2022-08-17T13:44:40.011Z,99.90
2022-08-17T13:47:20.638Z,99.90
2022-08-17T13:49:52.117Z,99.90
2022-08-17T13:52:39.497Z,99.90
2022-08-17T13:55:20.323Z,99.90
2022-08-17T13:58:06.626Z,99.90
2022-08-17T14:00:40.276Z,99.90
2022-08-17T14:03:10.977Z,99.90
2022-08-17T14:05:42.921Z,99.90
2022-08-17T14:08:16.274Z,99.90
2022-08-17T14:10:47.485Z,99.90
2022-08-17T14:13:19.860Z,99.90
2022-08-17T14:15:56.021Z,99.90
2022-08-17T14:18:55.549Z,99.90
2022-08-17T14:21:18.401Z,99.90
2022-08-17T14:23:54.652Z,99.90
2022-08-17T14:26:25.810Z,99.90
2022-08-17T14:28:58.213Z,99.90
2022-08-17T14:31:36.787Z,99.90
2022-08-17T14:34:08.939Z,99.90
2022-08-17T14:36:41.124Z,99.90
2022-08-17T14:39:19.960Z,99.90
2022-08-17T14:41:50.798Z,99.90
2022-08-17T14:44:23.173Z,99.90
2022-08-17T14:46:53.955Z,99.90
2022-08-17T14:49:26.721Z,99.90
2022-08-17T14:51:57.485Z,99.90
2022-08-17T14:54:33.975Z,99.90
2022-08-17T14:57:25.165Z,99.90
2022-08-17T14:59:59.964Z,99.90
2022-08-17T15:02:31.809Z,99.90
2022-08-17T15:05:03.581Z,99.90
2022-08-17T15:07:34.497Z,99.90
2022-08-17T15:10:05.565Z,99.90
2022-08-17T15:12:36.777Z,97.50
2022-08-17T15:15:11.147Z,94.00
2022-08-17T15:17:54.960Z,90.80
2022-08-17T15:20:28.409Z,86.20
2022-08-17T15:23:00.475Z,77.60
2022-08-17T15:25:32.907Z,74.00
2022-08-17T15:28:04.957Z,73.70
2022-08-17T15:30:37.685Z,69.60
2022-08-17T15:33:08.459Z,69.00
2022-08-17T15:35:39.866Z,65.40
2022-08-17T15:38:12.467Z,61.60
2022-08-17T15:40:45.757Z,58.30
2022-08-17T15:43:23.314Z,59.30
2022-08-17T15:46:01.263Z,58.30
2022-08-17T15:48:43.045Z,57.50
2022-08-17T15:51:15.902Z,59.20
2022-08-17T15:53:48.415Z,56.70
2022-08-17T15:56:19.699Z,56.80
2022-08-17T15:58:51.828Z,56.30
2022-08-17T16:01:35.156Z,54.20
2022-08-17T16:04:29.955Z,52.30
2022-08-17T16:07:02.098Z,52.70
2022-08-17T16:09:32.809Z,52.10
2022-08-17T16:12:13.655Z,52.60
2022-08-17T16:14:44.396Z,53.40
2022-08-17T16:17:39.624Z,54.10
2022-08-17T16:20:08.640Z,52.10
2022-08-17T16:22:41.235Z,52.60
2022-08-17T16:25:14.498Z,51.60
2022-08-17T16:27:45.457Z,51.90
2022-08-17T16:30:18.122Z,52.30
2022-08-17T16:32:52.285Z,50.40
2022-08-17T16:35:25.921Z,50.50
2022-08-17T16:37:59.115Z,50.20
2022-08-17T16:40:35.860Z,50.00
2022-08-17T16:43:12.862Z,50.10
2022-08-17T16:45:44.869Z,48.90
2022-08-17T16:48:19.862Z,48.80
2022-08-17T16:51:04.341Z,50.20
2022-08-17T16:53:35.421Z,49.40
2022-08-17T16:56:08.352Z,48.40
2022-08-17T16:58:39.181Z,47.90
2022-08-17T17:01:11.122Z,47.40
2022-08-17T17:03:46.827Z,47.80
2022-08-17T17:06:23.905Z,46.60
2022-08-17T17:08:58.896Z,46.90
2022-08-17T17:11:34.843Z,46.90
2022-08-17T17:14:12.858Z,47.40
2022-08-17T17:16:54.858Z,49.00
2022-08-17T17:19:35.757Z,47.30
2022-08-17T17:22:16.607Z,47.80
2022-08-17T17:24:54.505Z,47.90
2022-08-17T17:27:34.425Z,48.00
2022-08-17T17:30:11.854Z,46.80
2022-08-17T17:32:48.157Z,48.00
2022-08-17T17:35:25.693Z,46.90
2022-08-17T17:37:59.553Z,47.20
2022-08-17T17:40:35.734Z,46.80
2022-08-17T17:43:34.909Z,46.50
2022-08-17T17:46:09.189Z,44.40
2022-08-17T17:48:54.233Z,44.30
2022-08-17T17:52:01.954Z,44.10
2022-08-17T17:54:34.807Z,46.30
2022-08-17T17:57:11.792Z,47.30
2022-08-17T17:59:52.220Z,46.60
2022-08-17T18:02:52.994Z,45.60
2022-08-17T18:05:46.757Z,43.70
2022-08-17T18:08:34.063Z,44.40
2022-08-17T18:11:24.265Z,47.40
2022-08-17T18:14:15.292Z,46.60
2022-08-17T18:16:47.181Z,46.60
2022-08-17T18:19:20.844Z,46.50
2022-08-17T18:21:56.267Z,47.80
2022-08-17T18:24:37.887Z,46.30
2022-08-17T18:27:24.041Z,43.80
2022-08-17T18:29:56.310Z,43.10
2022-08-17T18:32:41.599Z,46.20
2022-08-17T18:35:31.870Z,44.80
2022-08-17T18:38:23.119Z,47.20
2022-08-17T18:41:09.440Z,47.10
2022-08-17T18:43:53.129Z,46.70
2022-08-17T18:46:30.417Z,47.20
2022-08-17T18:49:03.489Z,46.60
2022-08-17T18:51:43.177Z,47.30
2022-08-17T18:54:23.454Z,46.20
2022-08-17T18:56:58.081Z,47.40
2022-08-17T18:59:34.337Z,46.70
2022-08-17T19:02:35.015Z,45.80
2022-08-17T19:05:27.890Z,44.70
2022-08-17T19:08:19.997Z,46.30
2022-08-17T19:10:54.444Z,44.00
2022-08-17T19:13:31.796Z,44.80
2022-08-17T19:16:13.889Z,45.50
2022-08-17T19:18:48.398Z,44.10
2022-08-17T19:21:22.822Z,45.60
2022-08-17T19:23:59.700Z,47.50
2022-08-17T19:26:54.419Z,49.40
2022-08-17T19:29:31.957Z,46.60
2022-08-17T19:32:05.705Z,46.00
2022-08-17T19:34:38.954Z,48.50
2022-08-17T19:37:15.800Z,44.70
2022-08-17T19:39:53.464Z,47.30
2022-08-17T19:42:33.206Z,46.70
2022-08-17T19:45:13.249Z,46.50
2022-08-17T19:47:56.031Z,49.20
2022-08-17T19:50:39.130Z,48.30
2022-08-17T19:53:18.404Z,48.10
2022-08-17T19:55:56.504Z,51.10
2022-08-17T19:58:53.153Z,49.50
2022-08-17T20:01:34.971Z,49.20
2022-08-17T20:04:14.684Z,51.70
2022-08-17T20:06:50.054Z,50.00
2022-08-17T20:09:33.860Z,51.10
2022-08-17T20:12:11.164Z,52.20
2022-08-17T20:14:53.273Z,51.40
2022-08-17T20:17:32.909Z,51.60
2022-08-17T20:20:19.323Z,50.50
2022-08-17T20:22:56.535Z,50.40
2022-08-17T20:25:35.211Z,51.10
2022-08-17T20:28:18.907Z,51.40
2022-08-17T20:30:53.496Z,50.30
2022-08-17T20:33:31.247Z,50.90
2022-08-17T20:36:19.543Z,51.60
2022-08-17T20:38:53.956Z,52.30
2022-08-17T20:41:26.455Z,49.50
2022-08-17T20:44:08.297Z,50.50
2022-08-17T20:46:57.904Z,53.30
2022-08-17T20:49:40.585Z,52.00
2022-08-17T20:52:14.228Z,51.90
2022-08-17T20:54:49.064Z,51.50
2022-08-17T20:57:50.457Z,52.60
2022-08-17T21:00:43.220Z,52.00
2022-08-17T21:03:51.498Z,51.80
2022-08-17T21:06:27.067Z,51.90
2022-08-17T21:09:01.256Z,52.30
2022-08-17T21:12:04.147Z,52.60
2022-08-17T21:14:58.818Z,50.80
2022-08-17T21:17:42.844Z,51.10
2022-08-17T21:20:27.846Z,52.80
2022-08-17T21:23:29.580Z,51.50
2022-08-17T21:26:20.222Z,50.50
2022-08-17T21:29:29.719Z,51.10
2022-08-17T21:32:19.017Z,50.10
2022-08-17T21:35:19.973Z,51.40
2022-08-17T21:37:53.885Z,51.50
2022-08-17T21:40:29.880Z,49.90
2022-08-17T21:43:02.874Z,50.70
2022-08-17T21:45:35.948Z,50.90
2022-08-17T21:48:13.872Z,49.40
2022-08-17T21:50:48.331Z,49.40
2022-08-17T21:53:32.760Z,51.30
2022-08-17T21:56:05.973Z,50.30
2022-08-17T21:58:41.458Z,49.50
2022-08-17T22:01:23.352Z,48.10
2022-08-17T22:04:06.390Z,48.60
2022-08-17T22:06:40.610Z,48.30
2022-08-17T22:09:18.718Z,50.60
2022-08-17T22:12:00.147Z,50.20
2022-08-17T22:14:53.003Z,49.40
2022-08-17T22:17:27.233Z,47.40
2022-08-17T22:20:00.573Z,49.40
2022-08-17T22:22:57.762Z,48.60
2022-08-17T22:25:30.384Z,47.90
2022-08-17T22:28:04.834Z,47.80
2022-08-17T22:30:41.000Z,48.70
2022-08-17T22:33:34.200Z,48.40
2022-08-17T22:36:25.891Z,48.00
2022-08-17T22:38:58.545Z,49.20
2022-08-17T22:41:51.315Z,47.70
2022-08-17T22:44:28.509Z,49.00
2022-08-17T22:47:02.867Z,48.40
2022-08-17T22:49:53.940Z,46.70
2022-08-17T22:52:36.149Z,49.40
2022-08-17T22:55:31.474Z,48.10
2022-08-17T22:58:19.570Z,46.50
2022-08-17T23:00:52.648Z,48.70
2022-08-17T23:03:25.394Z,49.90
2022-08-17T23:06:08.094Z,50.20
2022-08-17T23:08:44.821Z,50.50
2022-08-17T23:11:15.907Z,49.80
2022-08-17T23:13:46.836Z,50.50
2022-08-17T23:16:19.391Z,50.60
2022-08-17T23:18:51.731Z,49.70
2022-08-17T23:21:26.454Z,49.50
2022-08-17T23:23:59.939Z,48.70
2022-08-17T23:26:31.070Z,48.50
2022-08-17T23:29:05.121Z,49.20
2022-08-17T23:31:39.438Z,49.10
2022-08-17T23:34:14.247Z,50.30
2022-08-17T23:36:52.448Z,52.30
2022-08-17T23:39:28.070Z,51.20
2022-08-17T23:42:00.533Z,49.90
2022-08-17T23:44:31.899Z,51.10
2022-08-17T23:47:05.485Z,49.60
2022-08-17T23:49:36.976Z,51.30
2022-08-17T23:52:14.965Z,50.90
2022-08-17T23:54:49.144Z,51.20
2022-08-17T23:57:33.553Z,52.40
